createdAt,value
2023-03-18T00:00:29.499Z,67.41
2023-03-18T00:02:57.875Z,67.21
2023-03-18T00:05:26.232Z,67.50
2023-03-18T00:07:53.738Z,66.81
2023-03-18T00:10:21.139Z,66.46
2023-03-18T00:12:48.263Z,66.52
2023-03-18T00:15:16.284Z,66.69
2023-03-18T00:17:44.109Z,66.66
2023-03-18T00:20:13.091Z,67.26
2023-03-18T00:22:41.328Z,67.59
2023-03-18T00:25:11.030Z,67.74
2023-03-18T00:27:38.766Z,67.52
2023-03-18T00:30:07.300Z,67.73
2023-03-18T00:32:34.821Z,68.02
2023-03-18T00:35:03.962Z,67.81
2023-03-18T00:37:31.830Z,67.92
2023-03-18T00:40:06.554Z,66.88
2023-03-18T00:42:40.122Z,67.04
2023-03-18T00:45:10.589Z,67.15
2023-03-18T00:47:38.579Z,66.69
2023-03-18T00:50:08.366Z,65.97
2023-03-18T00:52:36.618Z,65.87
2023-03-18T00:55:04.613Z,66.36
2023-03-18T00:57:31.801Z,65.41
2023-03-18T00:59:59.646Z,66.46
2023-03-18T01:02:28.982Z,66.63
2023-03-18T01:04:57.961Z,66.11
2023-03-18T01:07:25.871Z,65.80
2023-03-18T01:09:52.970Z,65.33
2023-03-18T01:12:20.318Z,65.34
2023-03-18T01:14:48.162Z,65.83
2023-03-18T01:17:15.588Z,66.09
2023-03-18T01:19:43.506Z,66.23
2023-03-18T01:22:10.966Z,66.03
2023-03-18T01:24:39.443Z,66.00
2023-03-18T01:27:07.666Z,66.31
2023-03-18T01:29:35.616Z,66.28
2023-03-18T01:32:03.296Z,66.50
2023-03-18T01:34:30.913Z,66.51
2023-03-18T01:36:58.786Z,66.24
2023-03-18T01:39:26.358Z,66.23
2023-03-18T01:41:53.462Z,66.14
2023-03-18T01:44:22.891Z,66.40
2023-03-18T01:46:51.782Z,66.96
2023-03-18T01:49:24.187Z,66.73
2023-03-18T01:51:58.781Z,67.31
2023-03-18T01:54:27.497Z,67.08
2023-03-18T01:56:55.193Z,67.07
2023-03-18T01:59:24.391Z,66.86
2023-03-18T02:02:12.506Z,67.40
2023-03-18T02:04:43.308Z,67.87
2023-03-18T02:07:23.228Z,67.36
2023-03-18T02:09:52.523Z,67.79
2023-03-18T02:12:24.652Z,67.52
2023-03-18T02:14:53.674Z,67.70
2023-03-18T02:17:27.158Z,67.49
2023-03-18T02:20:10.497Z,67.60
2023-03-18T02:22:44.904Z,67.72
2023-03-18T02:25:32.048Z,68.03
2023-03-18T02:28:01.840Z,68.14
2023-03-18T02:30:35.960Z,67.71
2023-03-18T02:33:04.146Z,67.78
2023-03-18T02:35:32.269Z,67.97
2023-03-18T02:37:59.942Z,67.97
2023-03-18T02:40:29.803Z,67.87
2023-03-18T02:43:44.030Z,67.89
2023-03-18T02:46:19.765Z,68.12
2023-03-18T02:48:49.010Z,67.69
2023-03-18T02:51:17.208Z,68.11
2023-03-18T02:53:45.001Z,67.86
2023-03-18T02:56:12.811Z,67.79
2023-03-18T02:58:41.991Z,67.89
2023-03-18T03:01:10.022Z,68.10
2023-03-18T03:03:37.976Z,68.31
2023-03-18T03:06:06.519Z,67.69
2023-03-18T03:08:34.041Z,68.05
2023-03-18T03:11:01.725Z,68.04
2023-03-18T03:13:29.434Z,68.03
2023-03-18T03:15:57.277Z,68.27
2023-03-18T03:18:25.462Z,68.69
2023-03-18T03:20:53.410Z,68.69
2023-03-18T03:23:21.132Z,69.01
2023-03-18T03:25:49.397Z,68.71
2023-03-18T03:28:17.097Z,69.08
2023-03-18T03:30:45.403Z,69.35
2023-03-18T03:33:13.548Z,69.21
2023-03-18T03:35:41.733Z,68.74
2023-03-18T03:38:09.450Z,69.35
2023-03-18T03:40:37.278Z,69.55
2023-03-18T03:43:05.606Z,69.46
2023-03-18T03:45:33.671Z,69.06
2023-03-18T03:48:01.518Z,69.15
2023-03-18T03:50:29.243Z,69.12
2023-03-18T03:52:56.532Z,68.95
2023-03-18T03:55:24.696Z,69.14
2023-03-18T03:57:52.177Z,69.35
2023-03-18T04:00:21.532Z,69.12
2023-03-18T04:02:50.852Z,68.95
2023-03-18T04:05:20.752Z,68.87
2023-03-18T04:07:48.338Z,68.86
2023-03-18T04:10:18.221Z,68.33
2023-03-18T04:12:46.368Z,69.06
2023-03-18T04:15:15.543Z,68.95
2023-03-18T04:17:43.785Z,68.83
2023-03-18T04:20:12.438Z,68.92
2023-03-18T04:22:39.779Z,68.87
2023-03-18T04:25:11.104Z,68.85
2023-03-18T04:27:39.950Z,68.09
2023-03-18T04:30:09.300Z,67.76
2023-03-18T04:32:37.016Z,67.88
2023-03-18T04:35:04.681Z,68.25
2023-03-18T04:37:37.050Z,67.62
2023-03-18T04:40:06.363Z,67.74
2023-03-18T04:42:33.995Z,67.83
2023-03-18T04:45:01.996Z,68.42
2023-03-18T04:47:29.550Z,67.59
2023-03-18T04:49:57.151Z,67.66
2023-03-18T04:52:24.546Z,67.66
2023-03-18T04:54:51.882Z,67.57
2023-03-18T04:57:19.708Z,67.55
2023-03-18T04:59:47.875Z,67.44
2023-03-18T05:02:15.619Z,67.21
2023-03-18T05:04:43.927Z,67.51
2023-03-18T05:07:15.859Z,67.91
2023-03-18T05:09:44.454Z,67.88
2023-03-18T05:12:14.908Z,67.56
2023-03-18T05:14:43.206Z,67.78
2023-03-18T05:17:15.777Z,67.46
2023-03-18T05:19:45.016Z,67.86
2023-03-18T05:22:13.661Z,67.11
2023-03-18T05:24:43.181Z,66.99
2023-03-18T05:27:10.925Z,66.02
2023-03-18T05:29:40.363Z,65.51
2023-03-18T05:32:09.669Z,65.08
2023-03-18T05:34:38.953Z,65.47
2023-03-18T05:37:08.603Z,65.49
2023-03-18T05:39:37.077Z,65.30
2023-03-18T05:42:06.454Z,65.23
2023-03-18T05:44:35.159Z,64.40
2023-03-18T05:47:02.794Z,64.67
2023-03-18T05:49:31.182Z,64.11
2023-03-18T05:51:59.392Z,64.04
2023-03-18T05:54:27.111Z,63.69
2023-03-18T05:56:54.800Z,64.10
2023-03-18T05:59:24.051Z,63.97
2023-03-18T06:01:51.662Z,64.60
2023-03-18T06:04:19.793Z,63.71
2023-03-18T06:06:48.294Z,63.82
2023-03-18T06:09:16.597Z,63.29
2023-03-18T06:11:45.561Z,62.44
2023-03-18T06:14:13.090Z,60.36
2023-03-18T06:16:41.762Z,59.45
2023-03-18T06:19:10.918Z,59.20
2023-03-18T06:21:41.534Z,57.78
2023-03-18T06:24:09.694Z,56.75
2023-03-18T06:26:38.200Z,55.48
2023-03-18T06:29:05.519Z,55.05
2023-03-18T06:31:33.898Z,54.63
2023-03-18T06:34:01.726Z,55.01
2023-03-18T06:36:34.445Z,54.47
2023-03-18T06:39:02.428Z,55.01
2023-03-18T06:41:30.629Z,53.77
2023-03-18T06:43:58.539Z,52.49
2023-03-18T06:46:29.522Z,52.33
2023-03-18T06:48:57.041Z,51.63
2023-03-18T06:51:24.735Z,51.98
2023-03-18T06:53:52.159Z,51.04
2023-03-18T06:56:19.448Z,51.95
2023-03-18T06:58:47.325Z,50.97
2023-03-18T07:01:14.971Z,50.03
2023-03-18T07:03:42.599Z,50.04
2023-03-18T07:06:10.367Z,50.70
2023-03-18T07:08:38.879Z,50.65
2023-03-18T07:11:07.257Z,49.52
2023-03-18T07:13:34.828Z,47.84
2023-03-18T07:16:03.836Z,48.21
2023-03-18T07:18:31.439Z,47.47
2023-03-18T07:20:58.732Z,47.08
2023-03-18T07:23:27.173Z,48.17
2023-03-18T07:25:57.495Z,46.65
2023-03-18T07:28:24.794Z,49.76
2023-03-18T07:30:54.189Z,46.24
2023-03-18T07:33:21.554Z,46.33
2023-03-18T07:35:48.784Z,46.36
2023-03-18T07:38:18.190Z,45.84
2023-03-18T07:40:45.366Z,45.45
2023-03-18T07:43:12.491Z,46.80
2023-03-18T07:45:39.955Z,46.15
2023-03-18T07:48:07.644Z,44.95
2023-03-18T07:50:35.201Z,50.85
2023-03-18T07:53:03.483Z,51.55
2023-03-18T07:55:30.834Z,50.20
2023-03-18T07:57:58.558Z,46.89
2023-03-18T08:00:26.092Z,47.61
2023-03-18T08:02:53.490Z,49.55
2023-03-18T08:05:22.075Z,47.08
2023-03-18T08:07:49.311Z,48.72
2023-03-18T08:10:17.353Z,51.26
2023-03-18T08:12:52.481Z,45.99
2023-03-18T08:15:21.965Z,52.95
2023-03-18T08:17:50.627Z,50.79
2023-03-18T08:20:18.174Z,47.94
2023-03-18T08:22:46.083Z,47.81
2023-03-18T08:25:13.542Z,44.09
2023-03-18T08:27:40.888Z,47.60
2023-03-18T08:30:09.664Z,44.84
2023-03-18T08:32:37.499Z,44.19
2023-03-18T08:35:05.239Z,46.43
2023-03-18T08:37:32.971Z,44.46
2023-03-18T08:40:00.282Z,42.41
2023-03-18T08:42:27.902Z,44.43
2023-03-18T08:44:55.505Z,42.12
2023-03-18T08:47:25.046Z,41.48
2023-03-18T08:49:52.292Z,41.37
2023-03-18T08:52:19.900Z,40.85
2023-03-18T08:54:47.897Z,40.56
2023-03-18T08:57:15.985Z,43.14
2023-03-18T08:59:43.473Z,40.58
2023-03-18T09:02:18.372Z,42.04
2023-03-18T09:04:46.026Z,41.50
2023-03-18T09:07:13.536Z,40.09
2023-03-18T09:09:43.913Z,38.85
2023-03-18T09:12:12.679Z,38.38
2023-03-18T09:14:44.010Z,39.20
2023-03-18T09:17:11.697Z,38.23
2023-03-18T09:19:38.936Z,38.39
2023-03-18T09:22:06.166Z,38.26
2023-03-18T09:24:34.975Z,40.67
2023-03-18T09:27:02.260Z,39.29
2023-03-18T09:29:29.616Z,39.83
2023-03-18T09:32:00.649Z,39.66
2023-03-18T09:34:27.816Z,37.90
2023-03-18T09:36:54.915Z,38.59
2023-03-18T09:39:22.481Z,40.87
2023-03-18T09:42:29.320Z,41.49
2023-03-18T09:45:02.663Z,39.12
2023-03-18T09:47:46.435Z,39.69
2023-03-18T09:50:35.340Z,41.89
2023-03-18T09:53:40.271Z,38.55
2023-03-18T09:56:13.542Z,39.50
2023-03-18T09:58:50.148Z,35.74
2023-03-18T10:01:18.556Z,40.15
2023-03-18T10:04:15.062Z,39.83
2023-03-18T10:06:44.256Z,40.30
2023-03-18T10:09:39.589Z,40.73
2023-03-18T10:12:12.358Z,38.86
2023-03-18T10:14:44.277Z,41.29
2023-03-18T10:17:35.569Z,40.23
2023-03-18T10:20:06.231Z,39.63
2023-03-18T10:22:50.071Z,39.95
2023-03-18T10:25:36.807Z,39.14
2023-03-18T10:28:41.377Z,40.51
2023-03-18T10:31:21.132Z,42.51
2023-03-18T10:33:55.647Z,41.92
2023-03-18T10:36:25.966Z,39.11
2023-03-18T10:38:54.887Z,38.93
2023-03-18T10:41:28.957Z,39.32
2023-03-18T10:43:57.267Z,43.22
2023-03-18T10:46:27.064Z,38.87
2023-03-18T10:49:19.147Z,40.42
2023-03-18T10:51:51.067Z,40.02
2023-03-18T10:54:28.719Z,40.52
2023-03-18T10:56:56.628Z,41.85
2023-03-18T10:59:25.807Z,38.24
2023-03-18T11:02:07.551Z,40.44
2023-03-18T11:05:17.061Z,39.82
2023-03-18T11:08:06.491Z,40.34
2023-03-18T11:10:37.080Z,38.87
2023-03-18T11:13:04.331Z,38.88
2023-03-18T11:15:45.194Z,37.53
2023-03-18T11:18:19.666Z,38.67
2023-03-18T11:20:49.300Z,37.37
2023-03-18T11:23:20.577Z,36.96
2023-03-18T11:25:48.980Z,39.35
2023-03-18T11:28:23.356Z,37.79
2023-03-18T11:30:55.213Z,36.84
2023-03-18T11:33:30.524Z,38.18
2023-03-18T11:35:58.881Z,38.59
2023-03-18T11:38:33.368Z,37.52
2023-03-18T11:41:17.011Z,37.53
2023-03-18T11:44:02.061Z,39.43
2023-03-18T11:46:36.161Z,37.48
2023-03-18T11:49:04.145Z,36.41
2023-03-18T11:51:56.541Z,35.92
2023-03-18T11:54:29.882Z,36.56
2023-03-18T11:57:05.793Z,36.78
2023-03-18T12:00:05.127Z,36.03
2023-03-18T12:02:59.982Z,37.65
2023-03-18T12:05:52.430Z,37.58
2023-03-18T12:08:41.582Z,36.55
2023-03-18T12:11:13.848Z,36.16
2023-03-18T12:14:06.359Z,38.63
2023-03-18T12:16:52.378Z,37.84
2023-03-18T12:19:32.070Z,36.20
2023-03-18T12:22:26.705Z,37.55
2023-03-18T12:25:30.511Z,36.02
2023-03-18T12:28:11.209Z,37.00
2023-03-18T12:30:47.874Z,36.61
2023-03-18T12:33:35.797Z,36.23
2023-03-18T12:36:12.496Z,35.67
2023-03-18T12:39:05.777Z,38.10
2023-03-18T12:41:58.462Z,35.06
2023-03-18T12:44:57.761Z,35.07
2023-03-18T12:47:30.344Z,36.17
2023-03-18T12:50:00.338Z,36.04
2023-03-18T12:52:27.524Z,36.41
2023-03-18T12:55:05.798Z,35.45
2023-03-18T12:57:36.186Z,35.24
2023-03-18T13:00:10.532Z,36.33
2023-03-18T13:02:54.351Z,36.25
2023-03-18T13:05:31.696Z,34.89
2023-03-18T13:08:21.181Z,35.93
2023-03-18T13:10:54.918Z,37.01
2023-03-18T13:13:22.303Z,36.24
2023-03-18T13:15:55.196Z,39.30
2023-03-18T13:18:27.287Z,36.24
2023-03-18T13:20:58.652Z,37.06
2023-03-18T13:23:44.352Z,35.90
2023-03-18T13:26:17.225Z,35.84
2023-03-18T13:29:06.064Z,34.29
2023-03-18T13:31:42.691Z,35.24
2023-03-18T13:34:32.582Z,35.24
2023-03-18T13:37:12.402Z,37.04
2023-03-18T13:40:22.886Z,35.29
2023-03-18T13:42:51.368Z,37.54
2023-03-18T13:45:25.621Z,35.00
2023-03-18T13:47:59.117Z,36.54
2023-03-18T13:50:34.673Z,35.13
2023-03-18T13:53:03.763Z,35.82
2023-03-18T13:55:33.043Z,35.03
2023-03-18T13:58:19.200Z,34.88
2023-03-18T14:00:55.575Z,37.01
2023-03-18T14:03:51.686Z,35.46
2023-03-18T14:06:23.757Z,35.42
2023-03-18T14:08:52.703Z,35.96
2023-03-18T14:11:20.320Z,36.87
2023-03-18T14:13:47.458Z,36.88
2023-03-18T14:16:20.869Z,35.18
2023-03-18T14:19:10.157Z,36.15
2023-03-18T14:21:48.628Z,36.99
2023-03-18T14:24:22.237Z,34.58
2023-03-18T14:26:58.814Z,35.94
2023-03-18T14:29:37.511Z,35.57
2023-03-18T14:32:08.520Z,34.50
2023-03-18T14:34:54.750Z,34.98
2023-03-18T14:37:31.590Z,36.08
2023-03-18T14:40:13.979Z,34.18
2023-03-18T14:43:00.964Z,34.69
2023-03-18T14:45:31.380Z,35.46
2023-03-18T14:48:01.608Z,34.93
2023-03-18T14:50:29.522Z,36.33
2023-03-18T14:53:12.565Z,36.29
2023-03-18T14:55:40.452Z,35.26
2023-03-18T14:58:22.327Z,35.68
2023-03-18T15:01:12.354Z,37.26
2023-03-18T15:03:43.577Z,36.08
2023-03-18T15:06:26.900Z,37.56
2023-03-18T15:09:04.730Z,36.20
2023-03-18T15:11:39.581Z,35.42
2023-03-18T15:14:31.027Z,37.28
2023-03-18T15:17:04.718Z,35.97
2023-03-18T15:19:32.643Z,36.98
2023-03-18T15:22:05.795Z,35.66
2023-03-18T15:24:33.485Z,37.66
2023-03-18T15:27:10.881Z,37.97
2023-03-18T15:29:51.022Z,36.85
2023-03-18T15:32:26.483Z,37.60
2023-03-18T15:34:58.128Z,38.47
2023-03-18T15:37:42.752Z,37.02
2023-03-18T15:40:17.009Z,37.54
2023-03-18T15:42:45.411Z,37.88
2023-03-18T15:45:19.259Z,38.79
2023-03-18T15:47:47.480Z,39.77
2023-03-18T15:50:26.293Z,38.11
2023-03-18T15:53:19.766Z,37.85
2023-03-18T15:55:52.931Z,38.56
2023-03-18T15:58:29.325Z,39.85
2023-03-18T16:00:57.267Z,38.57
2023-03-18T16:03:27.162Z,39.55
2023-03-18T16:05:55.225Z,41.94
2023-03-18T16:08:22.926Z,40.08
2023-03-18T16:10:53.137Z,40.12
2023-03-18T16:13:33.322Z,40.63
2023-03-18T16:16:01.108Z,40.12
2023-03-18T16:18:28.282Z,40.24
2023-03-18T16:20:57.299Z,40.50
2023-03-18T16:23:24.732Z,40.06
2023-03-18T16:25:53.221Z,40.82
2023-03-18T16:28:23.126Z,41.83
2023-03-18T16:30:53.204Z,41.93
2023-03-18T16:33:21.052Z,42.81
2023-03-18T16:35:55.300Z,43.11
2023-03-18T16:38:23.008Z,43.07
2023-03-18T16:40:50.662Z,42.74
2023-03-18T16:43:19.796Z,43.60
2023-03-18T16:45:48.481Z,44.72
2023-03-18T16:48:18.833Z,45.38
2023-03-18T16:50:48.412Z,45.59
2023-03-18T16:53:18.329Z,46.27
2023-03-18T16:55:47.426Z,47.45
2023-03-18T16:58:22.488Z,47.60
2023-03-18T17:00:51.169Z,48.27
2023-03-18T17:03:19.178Z,48.57
2023-03-18T17:05:50.496Z,48.76
2023-03-18T17:08:19.516Z,49.57
2023-03-18T17:10:49.348Z,50.42
2023-03-18T17:13:26.004Z,51.09
2023-03-18T17:15:53.586Z,51.41
2023-03-18T17:18:22.824Z,51.97
2023-03-18T17:20:50.637Z,52.61
2023-03-18T17:23:20.526Z,52.69
2023-03-18T17:25:50.967Z,53.04
2023-03-18T17:28:23.725Z,53.47
2023-03-18T17:30:51.356Z,53.83
2023-03-18T17:33:31.102Z,54.36
2023-03-18T17:36:00.349Z,54.16
2023-03-18T17:38:28.785Z,55.31
2023-03-18T17:40:56.691Z,55.45
2023-03-18T17:43:36.929Z,56.01
2023-03-18T17:46:06.172Z,56.59
2023-03-18T17:48:35.223Z,57.61
2023-03-18T17:51:10.773Z,56.96
2023-03-18T17:53:49.468Z,57.44
2023-03-18T17:56:18.377Z,57.19
2023-03-18T17:58:47.753Z,57.75
2023-03-18T18:01:16.426Z,58.55
2023-03-18T18:03:44.217Z,58.59
2023-03-18T18:06:22.340Z,58.69
2023-03-18T18:08:50.123Z,59.32
2023-03-18T18:11:32.232Z,59.34
2023-03-18T18:14:13.033Z,59.65
2023-03-18T18:16:40.662Z,59.64
2023-03-18T18:19:10.366Z,59.79
2023-03-18T18:21:37.700Z,59.88
2023-03-18T18:24:14.575Z,59.95
2023-03-18T18:26:41.959Z,60.70
2023-03-18T18:29:14.458Z,61.14
2023-03-18T18:31:42.042Z,61.27
2023-03-18T18:34:09.401Z,61.95
2023-03-18T18:36:36.892Z,62.41
2023-03-18T18:39:05.429Z,62.48
2023-03-18T18:41:33.459Z,62.54
2023-03-18T18:44:00.622Z,62.97
2023-03-18T18:46:28.900Z,63.47
2023-03-18T18:48:56.615Z,63.82
2023-03-18T18:51:24.196Z,64.23
2023-03-18T18:53:53.695Z,64.18
2023-03-18T18:56:34.248Z,64.57
2023-03-18T18:59:05.192Z,64.71
2023-03-18T19:01:32.328Z,64.61
2023-03-18T19:03:59.429Z,65.61
2023-03-18T19:06:29.257Z,65.20
2023-03-18T19:08:58.558Z,65.75
2023-03-18T19:11:26.660Z,66.15
2023-03-18T19:13:55.352Z,66.00
2023-03-18T19:16:36.248Z,66.21
2023-03-18T19:19:03.681Z,66.22
2023-03-18T19:21:31.230Z,66.51
2023-03-18T19:23:58.662Z,66.25
2023-03-18T19:26:26.085Z,66.65
2023-03-18T19:28:59.006Z,66.63
2023-03-18T19:31:30.650Z,66.64
2023-03-18T19:33:59.734Z,66.80
2023-03-18T19:36:32.658Z,66.99
2023-03-18T19:39:01.475Z,66.99
2023-03-18T19:41:29.491Z,66.72
2023-03-18T19:44:04.089Z,67.10
2023-03-18T19:46:37.097Z,67.42
2023-03-18T19:49:33.221Z,67.46
2023-03-18T19:52:16.954Z,67.95
2023-03-18T19:54:44.476Z,68.24
2023-03-18T19:57:32.518Z,68.18
2023-03-18T20:00:01.095Z,68.50
2023-03-18T20:02:33.917Z,68.37
2023-03-18T20:05:03.768Z,68.23
2023-03-18T20:07:35.338Z,68.13
2023-03-18T20:10:02.791Z,68.26
2023-03-18T20:12:42.973Z,68.76
2023-03-18T20:15:22.415Z,68.85
2023-03-18T20:17:51.000Z,69.14
2023-03-18T20:20:19.611Z,69.32
2023-03-18T20:22:52.384Z,69.50
2023-03-18T20:25:24.381Z,69.96
2023-03-18T20:27:53.575Z,69.79
2023-03-18T20:30:27.780Z,69.57
2023-03-18T20:32:55.568Z,69.66
2023-03-18T20:35:28.514Z,69.85
2023-03-18T20:37:57.463Z,69.83
2023-03-18T20:40:29.273Z,69.70
2023-03-18T20:42:56.881Z,69.89
2023-03-18T20:45:24.943Z,69.86
2023-03-18T20:47:52.504Z,70.15
2023-03-18T20:50:21.966Z,70.33
2023-03-18T20:52:49.391Z,69.98
2023-03-18T20:55:31.789Z,69.92
2023-03-18T20:58:00.587Z,69.61
2023-03-18T21:00:31.156Z,69.53
2023-03-18T21:03:02.368Z,68.88
2023-03-18T21:05:29.844Z,68.62
2023-03-18T21:07:57.065Z,69.02
2023-03-18T21:10:26.218Z,69.04
2023-03-18T21:12:54.060Z,69.47
2023-03-18T21:15:24.191Z,69.57
2023-03-18T21:17:51.560Z,69.83
2023-03-18T21:20:22.954Z,70.38
2023-03-18T21:22:50.526Z,70.49
2023-03-18T21:25:22.994Z,70.27
2023-03-18T21:27:50.906Z,70.24
2023-03-18T21:30:21.510Z,70.49
2023-03-18T21:32:50.567Z,70.49
2023-03-18T21:35:26.125Z,70.58
2023-03-18T21:37:53.627Z,71.05
2023-03-18T21:40:23.591Z,71.00
2023-03-18T21:42:51.481Z,71.38
2023-03-18T21:45:21.334Z,71.76
2023-03-18T21:47:48.836Z,72.10
2023-03-18T21:50:26.256Z,72.26
2023-03-18T21:52:54.538Z,72.97
2023-03-18T21:55:22.553Z,73.13
2023-03-18T21:57:49.776Z,73.13
2023-03-18T22:00:20.097Z,73.39
2023-03-18T22:02:48.051Z,73.37
2023-03-18T22:05:20.933Z,73.59
2023-03-18T22:07:50.302Z,73.58
2023-03-18T22:10:22.917Z,73.91
2023-03-18T22:12:50.767Z,74.22
2023-03-18T22:15:23.716Z,73.93
2023-03-18T22:17:51.820Z,74.10
2023-03-18T22:20:19.059Z,74.42
2023-03-18T22:22:47.392Z,74.24
2023-03-18T22:25:24.477Z,74.04
2023-03-18T22:27:53.840Z,74.30
2023-03-18T22:30:21.601Z,74.53
2023-03-18T22:32:48.853Z,74.53
2023-03-18T22:35:21.394Z,74.85
2023-03-18T22:37:49.748Z,75.08
2023-03-18T22:40:22.281Z,75.31
2023-03-18T22:42:52.195Z,75.24
2023-03-18T22:45:22.842Z,75.33
2023-03-18T22:47:51.836Z,75.53
2023-03-18T22:50:19.674Z,75.74
2023-03-18T22:52:48.657Z,75.78
2023-03-18T22:55:22.472Z,75.93
2023-03-18T22:57:50.711Z,75.74
2023-03-18T23:00:35.570Z,76.08
2023-03-18T23:03:03.174Z,76.35
2023-03-18T23:05:30.741Z,76.42
2023-03-18T23:07:58.348Z,76.41
2023-03-18T23:10:25.625Z,76.59
2023-03-18T23:12:53.249Z,76.77
2023-03-18T23:15:22.636Z,77.10
2023-03-18T23:17:50.055Z,77.02
2023-03-18T23:20:18.403Z,77.07
2023-03-18T23:22:45.831Z,76.99
2023-03-18T23:25:17.740Z,76.85
2023-03-18T23:27:45.468Z,76.84
2023-03-18T23:30:13.667Z,77.14
2023-03-18T23:32:41.414Z,77.28
2023-03-18T23:35:09.708Z,77.41
2023-03-18T23:37:36.914Z,77.56
2023-03-18T23:40:06.122Z,77.51
2023-03-18T23:42:33.577Z,77.68
2023-03-18T23:45:00.877Z,77.98
2023-03-18T23:47:28.134Z,78.19
2023-03-18T23:49:55.684Z,78.54
2023-03-18T23:52:23.091Z,78.24
2023-03-18T23:54:50.269Z,77.85
2023-03-18T23:57:17.809Z,78.36
2023-03-18T23:59:45.029Z,77.92
